Time;durP1;ratioP1;P1;durP2;ratioP2;P2;SDS_P1;SDS_P2;PMS_P1;PMS_P2;Temp;Humidity;BMP_temperature;BMP_pressure;BME280_temperature;BME280_humidity;BME280_pressure;Samples;Min_cycle;Max_cycle;Signal;HPM_P1;HPM_P2
2023/09/05 00:00:16;;;;;;;5.63;5.13;;;27.50;68.80;;;;;;5110770;28;20479;-85
2023/09/05 00:02:48;;;;;;;4.93;4.43;;;27.50;68.70;;;;;;5107223;28;20460;-85
2023/09/05 00:05:18;;;;;;;5.10;4.60;;;27.50;68.70;;;;;;5098267;28;20451;-85
2023/09/05 00:07:48;;;;;;;5.10;4.70;;;27.50;68.70;;;;;;5106782;28;20446;-85
2023/09/05 00:10:17;;;;;;;5.47;4.97;;;27.50;68.70;;;;;;5104275;28;20453;-85
2023/09/05 00:12:46;;;;;;;5.20;4.70;;;27.40;68.70;;;;;;5108576;28;20491;-84
2023/09/05 00:15:15;;;;;;;6.60;5.03;;;27.40;68.70;;;;;;5098633;28;20470;-85
2023/09/05 00:17:44;;;;;;;4.90;4.50;;;27.40;68.70;;;;;;5092628;28;20497;-85
2023/09/05 00:20:14;;;;;;;5.27;4.87;;;27.40;68.80;;;;;;5102642;28;20442;-85
2023/09/05 00:22:44;;;;;;;6.00;4.77;;;27.40;68.80;;;;;;5102967;28;20474;-85
2023/09/05 00:25:15;;;;;;;5.33;4.93;;;27.40;68.70;;;;;;5108794;28;20925;-85
2023/09/05 00:27:44;;;;;;;4.40;4.10;;;27.40;68.70;;;;;;5109850;28;20451;-85
2023/09/05 00:30:14;;;;;;;4.80;4.40;;;27.40;68.80;;;;;;5097795;28;20443;-85
2023/09/05 00:32:43;;;;;;;4.53;4.13;;;27.40;68.70;;;;;;5096365;28;20465;-84
2023/09/05 00:35:14;;;;;;;5.10;4.60;;;27.40;68.80;;;;;;5093558;28;20520;-85
2023/09/05 00:37:42;;;;;;;4.77;4.37;;;27.40;68.80;;;;;;5102725;28;20465;-85
2023/09/05 00:40:11;;;;;;;4.20;3.90;;;27.40;68.80;;;;;;5089719;28;20466;-84
2023/09/05 00:42:41;;;;;;;4.83;4.53;;;27.30;68.80;;;;;;5107364;28;20448;-84
2023/09/05 00:45:10;;;;;;;4.73;4.33;;;27.30;68.80;;;;;;5109274;28;20451;-85
2023/09/05 00:47:40;;;;;;;4.63;4.23;;;27.30;68.80;;;;;;5082037;28;20469;-84
2023/09/05 00:50:10;;;;;;;4.70;4.40;;;27.30;68.80;;;;;;5099579;28;20489;-84
2023/09/05 00:52:39;;;;;;;4.13;3.80;;;27.30;68.80;;;;;;5100718;28;20459;-85
2023/09/05 00:55:08;;;;;;;4.20;3.90;;;27.30;68.80;;;;;;5087331;28;20468;-84
2023/09/05 00:57:36;;;;;;;4.93;4.53;;;27.30;68.80;;;;;;5089548;28;20543;-84
2023/09/05 01:00:10;;;;;;;5.23;4.83;;;27.30;68.80;;;;;;5111364;28;20665;-84
2023/09/05 01:02:38;;;;;;;4.50;4.20;;;27.30;68.80;;;;;;5100045;28;20936;-84
2023/09/05 01:05:08;;;;;;;4.90;4.50;;;27.30;68.80;;;;;;5083909;28;20815;-85
2023/09/05 01:07:49;;;;;;;4.80;4.40;;;27.30;68.80;;;;;;5082573;28;20549;-85
2023/09/05 01:10:23;;;;;;;4.10;3.80;;;27.20;68.80;;;;;;5085966;28;20528;-85
2023/09/05 01:12:51;;;;;;;5.13;4.70;;;27.20;68.80;;;;;;5081295;28;20464;-85
2023/09/05 01:15:21;;;;;;;4.70;4.30;;;27.20;68.80;;;;;;5101375;28;20457;-85
2023/09/05 01:17:53;;;;;;;5.00;4.53;;;27.20;68.80;;;;;;5097990;28;20488;-84
2023/09/05 01:20:26;;;;;;;4.10;3.80;;;27.20;68.80;;;;;;5102972;28;20489;-85
2023/09/05 01:23:04;;;;;;;5.20;4.80;;;27.20;68.80;;;;;;5098871;28;20462;-84
2023/09/05 01:25:34;;;;;;;4.53;4.13;;;27.20;68.80;;;;;;5099586;28;20912;-84
2023/09/05 01:28:04;;;;;;;5.07;4.57;;;27.20;68.80;;;;;;5099523;28;21527;-84
2023/09/05 01:33:38;;;;;;;4.50;4.10;;;27.20;68.80;;;;;;5053380;23;20509;-84
2023/09/05 01:36:07;;;;;;;4.57;4.17;;;27.20;68.80;;;;;;4894513;29;20513;-84
2023/09/05 01:38:35;;;;;;;4.23;3.93;;;27.20;68.80;;;;;;4892536;29;20497;-84
2023/09/05 01:41:04;;;;;;;4.60;4.27;;;27.20;68.80;;;;;;4893536;29;20463;-84
2023/09/05 01:43:34;;;;;;;3.73;3.53;;;27.20;68.80;;;;;;4890285;29;20480;-84
2023/09/05 01:46:02;;;;;;;4.87;4.47;;;27.20;68.80;;;;;;4885657;29;20464;-84
2023/09/05 01:48:30;;;;;;;5.37;4.87;;;27.20;68.80;;;;;;4892331;29;20501;-84
2023/09/05 01:50:58;;;;;;;4.30;4.00;;;27.20;68.80;;;;;;4890546;29;20462;-84
2023/09/05 01:53:26;;;;;;;4.30;3.90;;;27.20;68.80;;;;;;4892249;29;20463;-84
2023/09/05 01:55:55;;;;;;;5.90;5.13;;;27.20;68.80;;;;;;4891229;29;20982;-84
2023/09/05 01:58:24;;;;;;;4.97;4.50;;;27.20;68.80;;;;;;4894526;29;20567;-84
2023/09/05 02:00:53;;;;;;;5.73;4.17;;;27.10;68.80;;;;;;4894227;29;20470;-84
2023/09/05 02:03:21;;;;;;;3.90;3.60;;;27.10;68.90;;;;;;4882265;29;20471;-84
2023/09/05 02:05:50;;;;;;;4.17;3.87;;;27.10;68.80;;;;;;4895773;29;20481;-83
2023/09/05 02:08:18;;;;;;;3.50;3.20;;;27.10;68.90;;;;;;4888549;29;20538;-84
2023/09/05 02:10:47;;;;;;;4.23;3.93;;;27.10;68.80;;;;;;4908207;29;20475;-84
2023/09/05 02:13:16;;;;;;;4.70;4.30;;;27.10;68.80;;;;;;4894992;29;20476;-84
2023/09/05 02:15:46;;;;;;;3.67;3.37;;;27.10;68.90;;;;;;4900808;29;20479;-84
2023/09/05 02:18:14;;;;;;;3.97;3.67;;;27.10;68.80;;;;;;4876430;29;20486;-84
2023/09/05 02:20:44;;;;;;;4.07;3.70;;;27.10;68.80;;;;;;4892908;29;20476;-84
2023/09/05 02:23:12;;;;;;;3.50;3.20;;;27.10;68.80;;;;;;4895751;29;20473;-84
2023/09/05 02:25:40;;;;;;;3.93;3.63;;;27.10;68.80;;;;;;4893020;29;20660;-84
2023/09/05 02:28:08;;;;;;;3.93;3.63;;;27.10;68.80;;;;;;4890428;29;20870;-84
2023/09/05 02:30:43;;;;;;;3.83;3.63;;;27.00;68.80;;;;;;4889036;29;20962;-84
2023/09/05 02:33:13;;;;;;;3.80;3.50;;;27.00;68.80;;;;;;4885155;29;20502;-84
2023/09/05 02:35:41;;;;;;;4.03;3.73;;;27.00;68.80;;;;;;4888924;29;20461;-84
2023/09/05 02:38:09;;;;;;;4.53;3.47;;;27.00;68.80;;;;;;4888303;29;21001;-84
2023/09/05 02:40:43;;;;;;;4.43;4.13;;;27.00;68.80;;;;;;4889713;29;20880;-84
2023/09/05 02:43:11;;;;;;;4.30;3.90;;;27.00;68.80;;;;;;4892810;29;20517;-84
2023/09/05 02:45:39;;;;;;;3.80;3.50;;;27.00;68.80;;;;;;4892402;29;20535;-84
2023/09/05 02:48:08;;;;;;;3.77;3.47;;;27.00;68.80;;;;;;4893808;29;20471;-84
2023/09/05 02:50:38;;;;;;;3.60;3.30;;;27.00;68.80;;;;;;4892478;29;20482;-84
2023/09/05 02:53:06;;;;;;;3.83;3.50;;;27.00;68.80;;;;;;4897297;29;20554;-84
2023/09/05 02:55:34;;;;;;;3.53;3.30;;;26.90;68.80;;;;;;4897581;29;20475;-84
2023/09/05 02:58:02;;;;;;;3.53;3.33;;;26.90;68.80;;;;;;4897062;29;20537;-84
2023/09/05 03:00:30;;;;;;;3.40;3.20;;;26.90;68.80;;;;;;4896060;29;20526;-84
2023/09/05 03:02:58;;;;;;;3.97;3.60;;;26.90;68.80;;;;;;4886095;29;20466;-84
2023/09/05 03:05:27;;;;;;;3.73;3.43;;;26.90;68.80;;;;;;4896519;29;20901;-84
2023/09/05 03:07:57;;;;;;;3.50;3.20;;;26.90;68.70;;;;;;4894817;29;20513;-85
2023/09/05 03:10:25;;;;;;;4.10;3.70;;;26.90;68.80;;;;;;4885700;29;20468;-84
2023/09/05 03:12:54;;;;;;;4.50;3.37;;;26.90;68.70;;;;;;4897938;29;20461;-84
2023/09/05 03:15:23;;;;;;;3.00;2.80;;;26.90;68.70;;;;;;4902396;29;20478;-84
2023/09/05 03:17:52;;;;;;;3.23;3.03;;;26.90;68.70;;;;;;4897213;29;20491;-84
2023/09/05 03:20:25;;;;;;;4.10;3.70;;;26.90;68.70;;;;;;4897164;29;20581;-84
2023/09/05 03:22:54;;;;;;;3.40;3.20;;;26.90;68.70;;;;;;4894563;29;20469;-84
2023/09/05 03:25:23;;;;;;;3.70;3.40;;;26.90;68.70;;;;;;4892869;29;20527;-84
2023/09/05 03:27:51;;;;;;;3.27;3.00;;;26.90;68.70;;;;;;4889131;29;21019;-84
2023/09/05 03:30:20;;;;;;;3.43;3.17;;;26.90;68.70;;;;;;4887857;29;20481;-84
2023/09/05 03:32:48;;;;;;;3.27;2.97;;;26.90;68.70;;;;;;4901449;29;20489;-84
2023/09/05 03:35:17;;;;;;;3.40;3.13;;;26.80;68.70;;;;;;4890295;29;20531;-84
2023/09/05 03:37:45;;;;;;;3.40;3.10;;;26.80;68.60;;;;;;4891870;29;20504;-84
2023/09/05 03:40:13;;;;;;;3.30;3.00;;;26.80;68.70;;;;;;4893606;29;20469;-84
2023/09/05 03:42:44;;;;;;;3.53;3.23;;;26.80;68.60;;;;;;4905503;29;20468;-84
2023/09/05 03:45:13;;;;;;;3.60;3.30;;;26.80;68.60;;;;;;4899220;29;20496;-84
2023/09/05 03:47:41;;;;;;;3.80;3.50;;;26.80;68.60;;;;;;4900169;29;20858;-84
2023/09/05 03:50:26;;;;;;;4.03;3.63;;;26.80;68.70;;;;;;4891160;29;20553;-84
2023/09/05 03:52:54;;;;;;;3.37;3.17;;;26.80;68.70;;;;;;4896508;29;20996;-83
2023/09/05 03:55:22;;;;;;;4.00;3.70;;;26.80;68.60;;;;;;4891653;29;20937;-84
2023/09/05 03:57:52;;;;;;;4.20;3.90;;;26.80;68.60;;;;;;4887980;29;21436;-84
2023/09/05 04:00:20;;;;;;;2.90;2.70;;;26.80;68.60;;;;;;4890337;29;20932;-84
2023/09/05 04:02:48;;;;;;;3.17;2.97;;;26.80;68.60;;;;;;4893438;29;20466;-85
2023/09/05 04:05:18;;;;;;;3.37;3.07;;;26.80;68.60;;;;;;4895865;29;20462;-84
2023/09/05 04:07:48;;;;;;;3.00;2.80;;;26.80;68.60;;;;;;4889688;29;21015;-84
2023/09/05 04:10:16;;;;;;;3.57;3.27;;;26.70;68.60;;;;;;4889608;29;20558;-84
2023/09/05 04:12:44;;;;;;;3.30;3.07;;;26.70;68.70;;;;;;4910356;29;20470;-84
2023/09/05 04:15:19;;;;;;;3.23;3.03;;;26.70;68.60;;;;;;4884452;29;20538;-85
2023/09/05 04:17:48;;;;;;;3.20;3.00;;;26.70;68.60;;;;;;4892949;29;20490;-83
2023/09/05 04:20:16;;;;;;;3.23;2.93;;;26.70;68.60;;;;;;4894554;29;20522;-84
2023/09/05 04:22:45;;;;;;;3.83;3.53;;;26.70;68.60;;;;;;4898346;29;20658;-84
2023/09/05 04:25:14;;;;;;;3.13;2.93;;;26.70;68.60;;;;;;4895609;29;20466;-84
2023/09/05 04:27:42;;;;;;;3.77;3.47;;;26.70;68.60;;;;;;4890232;29;20577;-84
2023/09/05 04:30:12;;;;;;;5.13;3.10;;;26.70;68.60;;;;;;4893038;29;20522;-84
2023/09/05 04:32:43;;;;;;;3.53;3.23;;;26.70;68.60;;;;;;4888320;29;20499;-84
2023/09/05 04:35:14;;;;;;;3.27;3.07;;;26.70;68.60;;;;;;4898366;29;20552;-84
2023/09/05 04:37:43;;;;;;;3.40;3.00;;;26.70;68.60;;;;;;4894179;29;20485;-84
2023/09/05 04:40:12;;;;;;;3.23;3.03;;;26.70;68.60;;;;;;4894854;29;20573;-84
2023/09/05 04:42:40;;;;;;;2.83;2.63;;;26.70;68.60;;;;;;4888463;29;20563;-84
2023/09/05 04:45:09;;;;;;;2.90;2.70;;;26.70;68.60;;;;;;4888952;29;20886;-84
2023/09/05 04:47:39;;;;;;;3.33;3.13;;;26.70;68.60;;;;;;4892878;29;20477;-84
2023/09/05 04:50:09;;;;;;;6.03;3.40;;;26.70;68.60;;;;;;4898475;29;21215;-84
2023/09/05 04:52:37;;;;;;;2.97;2.77;;;26.60;68.70;;;;;;4905505;29;20493;-84
2023/09/05 04:55:06;;;;;;;2.83;2.63;;;26.60;68.70;;;;;;4896101;29;20476;-84
2023/09/05 04:57:34;;;;;;;3.47;3.27;;;26.60;68.70;;;;;;4891481;29;20493;-84
2023/09/05 05:00:04;;;;;;;2.93;2.73;;;26.60;68.70;;;;;;4890586;29;20513;-84
2023/09/05 05:02:34;;;;;;;3.03;2.77;;;26.60;68.70;;;;;;4892314;29;20461;-84
2023/09/05 05:05:03;;;;;;;3.20;3.00;;;26.60;68.70;;;;;;4892861;29;20474;-84
2023/09/05 05:07:33;;;;;;;3.17;2.90;;;26.60;68.70;;;;;;4888751;29;20501;-84
2023/09/05 05:10:01;;;;;;;3.07;2.87;;;26.60;68.60;;;;;;4892659;29;20504;-84
2023/09/05 05:12:29;;;;;;;4.63;2.87;;;26.60;68.70;;;;;;4887528;29;20468;-84
2023/09/05 05:14:57;;;;;;;3.30;3.10;;;26.60;68.70;;;;;;4888909;29;20465;-84
2023/09/05 05:17:26;;;;;;;2.70;2.50;;;26.60;68.70;;;;;;4893983;29;20473;-84
2023/09/05 05:19:55;;;;;;;3.40;3.10;;;26.60;68.60;;;;;;4890755;29;20478;-84
2023/09/05 05:22:23;;;;;;;3.40;3.10;;;26.60;68.70;;;;;;4888283;29;20478;-84
2023/09/05 05:24:52;;;;;;;3.00;2.53;;;26.60;68.70;;;;;;4893628;29;21099;-84
2023/09/05 05:27:21;;;;;;;3.33;3.03;;;26.60;68.70;;;;;;4891027;29;21217;-84
2023/09/05 05:29:49;;;;;;;3.40;3.10;;;26.60;68.70;;;;;;4888939;29;20467;-84
2023/09/05 05:32:17;;;;;;;3.00;2.80;;;26.60;68.60;;;;;;4889445;29;21009;-84
2023/09/05 05:34:48;;;;;;;3.10;2.90;;;26.60;68.70;;;;;;4894008;29;20462;-84
2023/09/05 05:37:17;;;;;;;2.80;2.60;;;26.60;68.70;;;;;;4891358;29;20463;-84
2023/09/05 05:39:45;;;;;;;3.20;3.00;;;26.60;68.70;;;;;;4890546;29;20537;-84
2023/09/05 05:42:14;;;;;;;3.20;2.97;;;26.60;68.70;;;;;;4887940;29;20481;-85
2023/09/05 05:44:42;;;;;;;3.07;2.87;;;26.60;68.70;;;;;;4890243;29;20467;-84
2023/09/05 05:47:11;;;;;;;3.47;3.17;;;26.60;68.70;;;;;;4891093;29;20477;-84
2023/09/05 05:49:39;;;;;;;3.00;2.80;;;26.60;68.70;;;;;;4887915;29;20469;-84
2023/09/05 05:52:08;;;;;;;12.00;7.10;;;26.60;68.70;;;;;;4887676;29;20476;-84
2023/09/05 05:54:37;;;;;;;11.10;5.87;;;26.60;70.60;;;;;;4889483;29;20473;-84
2023/09/05 05:57:05;;;;;;;10.90;7.13;;;26.60;71.60;;;;;;4902408;29;20550;-84
2023/09/05 05:59:35;;;;;;;3.67;3.37;;;26.60;70.70;;;;;;4887501;29;20532;-84
2023/09/05 06:02:04;;;;;;;5.20;4.13;;;26.60;69.80;;;;;;4883501;29;20462;-84
2023/09/05 06:04:32;;;;;;;4.23;3.80;;;26.70;69.70;;;;;;4885455;29;20525;-84
2023/09/05 06:07:00;;;;;;;6.87;5.40;;;26.70;69.60;;;;;;4887760;29;20460;-84
2023/09/05 06:09:29;;;;;;;5.73;3.77;;;26.70;69.60;;;;;;4891727;29;20833;-84
2023/09/05 06:11:58;;;;;;;6.67;4.10;;;26.70;69.60;;;;;;4892353;29;20472;-84
2023/09/05 06:14:26;;;;;;;4.37;3.60;;;26.70;69.60;;;;;;4892963;29;20468;-82
2023/09/05 06:16:56;;;;;;;5.80;4.33;;;26.70;69.70;;;;;;4896945;29;20487;-84
2023/09/05 06:19:24;;;;;;;8.20;4.50;;;26.70;69.60;;;;;;4893446;29;20852;-84
2023/09/05 06:21:52;;;;;;;5.00;4.20;;;26.70;69.60;;;;;;4896655;29;20477;-82
2023/09/05 06:24:20;;;;;;;5.10;4.20;;;26.70;69.60;;;;;;4893962;29;20481;-82
2023/09/05 06:26:49;;;;;;;4.03;3.70;;;26.70;69.60;;;;;;4894979;29;20469;-83
2023/09/05 06:29:17;;;;;;;3.63;3.33;;;26.70;69.70;;;;;;4894465;29;20471;-83
2023/09/05 06:31:48;;;;;;;4.93;3.70;;;26.70;69.60;;;;;;4892067;29;20544;-84
2023/09/05 06:34:18;;;;;;;5.57;4.00;;;26.70;69.60;;;;;;4895421;29;20466;-84
2023/09/05 06:36:46;;;;;;;4.37;3.97;;;26.70;69.60;;;;;;4897208;29;20580;-84
2023/09/05 06:39:15;;;;;;;4.67;3.77;;;26.70;69.60;;;;;;4890850;29;20489;-83
2023/09/05 06:41:43;;;;;;;5.07;3.70;;;26.80;69.60;;;;;;4895790;29;20572;-83
2023/09/05 06:44:11;;;;;;;7.40;3.87;;;26.70;69.60;;;;;;4890620;29;20463;-83
2023/09/05 06:46:39;;;;;;;5.43;3.60;;;26.70;69.60;;;;;;4899167;29;20492;-83
2023/09/05 06:49:07;;;;;;;4.77;3.50;;;26.70;69.60;;;;;;4894209;29;20778;-83
2023/09/05 06:51:38;;;;;;;3.50;3.20;;;26.80;69.50;;;;;;4894070;29;20474;-83
2023/09/05 06:54:06;;;;;;;7.13;4.27;;;26.80;69.60;;;;;;4894445;29;20505;-83
2023/09/05 06:56:34;;;;;;;6.80;4.00;;;26.80;69.50;;;;;;4894423;29;21068;-84
2023/09/05 06:59:02;;;;;;;3.87;3.57;;;26.80;69.50;;;;;;4894015;29;20481;-83
2023/09/05 07:01:32;;;;;;;5.63;4.10;;;26.80;69.60;;;;;;4890036;29;20798;-84
2023/09/05 07:04:01;;;;;;;5.10;3.23;;;26.80;69.60;;;;;;4888755;29;20992;-84
2023/09/05 07:06:29;;;;;;;4.30;3.20;;;26.80;69.50;;;;;;4889342;29;20517;-84
2023/09/05 07:08:58;;;;;;;4.17;3.77;;;26.80;69.50;;;;;;4891065;29;21020;-84
2023/09/05 07:11:26;;;;;;;8.40;4.10;;;26.80;69.50;;;;;;4892711;29;20528;-84
2023/09/05 07:13:54;;;;;;;4.53;2.97;;;26.80;69.50;;;;;;4907561;29;20469;-84
2023/09/05 07:16:23;;;;;;;3.90;3.50;;;26.80;69.50;;;;;;4886386;29;20473;-84
2023/09/05 07:18:51;;;;;;;3.83;3.40;;;26.80;69.40;;;;;;4891727;29;20469;-84
2023/09/05 07:21:19;;;;;;;3.90;3.20;;;26.80;69.40;;;;;;4892583;29;20474;-84
2023/09/05 07:23:47;;;;;;;4.20;3.43;;;26.80;69.40;;;;;;4891169;29;20470;-84
2023/09/05 07:26:17;;;;;;;5.10;3.53;;;26.80;69.40;;;;;;4892448;29;20471;-84
2023/09/05 07:28:46;;;;;;;4.03;3.10;;;26.80;69.40;;;;;;4894726;29;20483;-84
2023/09/05 07:31:17;;;;;;;4.30;3.43;;;26.80;69.40;;;;;;4896450;29;20501;-84
2023/09/05 07:33:46;;;;;;;3.33;2.80;;;26.80;69.40;;;;;;4894676;29;20593;-84
2023/09/05 07:36:14;;;;;;;4.57;2.80;;;26.80;69.40;;;;;;4888319;29;20862;-84
2023/09/05 07:38:42;;;;;;;3.87;3.47;;;26.80;69.40;;;;;;4891773;29;20476;-84
2023/09/05 07:41:10;;;;;;;6.17;4.20;;;26.80;70.30;;;;;;4889528;29;20512;-84
2023/09/05 07:43:40;;;;;;;5.30;3.60;;;26.80;70.50;;;;;;4891944;29;20473;-85
2023/09/05 07:46:10;;;;;;;3.73;3.43;;;26.90;70.60;;;;;;4900849;29;20456;-85
2023/09/05 07:48:39;;;;;;;4.73;3.33;;;26.90;70.60;;;;;;4898255;29;20508;-85
2023/09/05 07:51:07;;;;;;;3.53;3.23;;;26.90;70.60;;;;;;4896463;29;20576;-85
2023/09/05 07:53:37;;;;;;;3.27;2.97;;;26.90;70.50;;;;;;4897621;29;20458;-84
2023/09/05 07:56:06;;;;;;;3.10;2.87;;;26.90;70.50;;;;;;4900347;29;20453;-84
2023/09/05 07:58:35;;;;;;;5.03;3.23;;;27.00;70.40;;;;;;4896788;29;20455;-84
2023/09/05 08:01:09;;;;;;;4.00;3.63;;;27.00;70.40;;;;;;4900314;29;20564;-83
2023/09/05 08:03:37;;;;;;;5.50;3.23;;;27.00;70.30;;;;;;4895711;29;20565;-83
2023/09/05 08:06:06;;;;;;;7.20;3.40;;;27.00;70.00;;;;;;4899216;29;20536;-83
2023/09/05 08:08:36;;;;;;;5.80;3.67;;;27.00;70.10;;;;;;4895191;29;20460;-82
2023/09/05 08:11:04;;;;;;;4.17;3.77;;;27.00;70.20;;;;;;4897419;29;20462;-82
2023/09/05 08:13:32;;;;;;;5.53;3.47;;;27.10;70.30;;;;;;4892536;29;20473;-84
2023/09/05 08:16:02;;;;;;;4.13;3.10;;;27.10;70.30;;;;;;4894865;29;20473;-83
2023/09/05 08:18:32;;;;;;;3.47;3.17;;;27.10;70.40;;;;;;4890548;29;20474;-84
2023/09/05 08:21:04;;;;;;;5.27;3.70;;;27.10;70.40;;;;;;4892595;29;20493;-84
2023/09/05 08:23:32;;;;;;;4.23;2.93;;;27.20;70.30;;;;;;4899498;29;20524;-84
2023/09/05 08:26:00;;;;;;;3.90;3.60;;;27.20;70.20;;;;;;4896816;29;20526;-84
2023/09/05 08:28:32;;;;;;;3.10;2.80;;;27.20;70.20;;;;;;4895852;29;20482;-83
2023/09/05 08:31:02;;;;;;;3.50;3.17;;;27.20;70.20;;;;;;4893001;29;20568;-84
2023/09/05 08:33:46;;;;;;;3.70;3.30;;;27.20;70.20;;;;;;4894407;29;20487;-83
2023/09/05 08:36:15;;;;;;;3.93;3.40;;;27.30;70.10;;;;;;4896203;29;20494;-83
2023/09/05 08:38:43;;;;;;;3.10;2.80;;;27.30;70.20;;;;;;4896408;29;20455;-83
2023/09/05 08:41:11;;;;;;;4.70;3.40;;;27.30;70.10;;;;;;4895016;29;20991;-83
2023/09/05 08:43:39;;;;;;;2.70;2.50;;;27.30;70.20;;;;;;4897295;29;20466;-83
2023/09/05 08:46:09;;;;;;;3.07;2.73;;;27.30;70.10;;;;;;4896056;29;20490;-84
2023/09/05 08:48:37;;;;;;;3.50;2.70;;;27.40;70.20;;;;;;4898066;29;20460;-84
2023/09/05 08:51:27;;;;;;;3.77;3.33;;;27.40;70.10;;;;;;4897077;29;20554;-84
2023/09/05 08:53:57;;;;;;;3.87;3.07;;;27.40;70.10;;;;;;4896790;29;20525;-84
2023/09/05 08:56:26;;;;;;;3.87;3.57;;;27.40;70.10;;;;;;4890964;29;20470;-83
2023/09/05 08:58:56;;;;;;;2.47;2.27;;;27.40;70.10;;;;;;4895386;29;20466;-84
2023/09/05 09:01:25;;;;;;;2.93;2.67;;;27.40;70.00;;;;;;4897639;29;21026;-83
2023/09/05 09:03:55;;;;;;;2.83;2.63;;;27.50;70.00;;;;;;4894359;29;20470;-83
2023/09/05 09:06:26;;;;;;;3.60;2.37;;;27.50;70.00;;;;;;4899794;29;20471;-83
2023/09/05 09:08:55;;;;;;;2.40;2.13;;;27.50;70.00;;;;;;4896345;29;20512;-85
2023/09/05 09:11:24;;;;;;;3.30;2.83;;;27.50;70.00;;;;;;4896418;29;20455;-85
2023/09/05 09:13:59;;;;;;;4.60;2.67;;;27.50;70.00;;;;;;4897427;29;21029;-83
2023/09/05 09:16:28;;;;;;;3.13;2.77;;;27.50;70.00;;;;;;4898554;29;20462;-83
2023/09/05 09:19:02;;;;;;;3.60;2.70;;;27.60;70.00;;;;;;4893540;29;20539;-85
2023/09/05 09:21:32;;;;;;;3.30;2.67;;;27.60;70.00;;;;;;4896666;29;20485;-84
2023/09/05 09:24:06;;;;;;;3.23;2.90;;;27.60;70.00;;;;;;4896869;29;20560;-83
2023/09/05 09:26:36;;;;;;;3.90;3.07;;;27.60;70.00;;;;;;4895255;29;20534;-83
2023/09/05 09:29:08;;;;;;;2.40;2.00;;;27.60;70.00;;;;;;4896472;29;20460;-83
2023/09/05 09:31:37;;;;;;;5.07;3.10;;;27.60;70.00;;;;;;4887361;29;20473;-84
2023/09/05 09:34:07;;;;;;;3.37;2.43;;;27.60;70.00;;;;;;4897179;29;20451;-84
2023/09/05 09:36:38;;;;;;;3.63;2.83;;;27.70;70.00;;;;;;4896853;29;20454;-84
2023/09/05 09:39:10;;;;;;;3.70;3.37;;;27.70;70.00;;;;;;4896174;29;20467;-84
2023/09/05 09:41:46;;;;;;;3.00;2.73;;;27.70;70.00;;;;;;4897150;29;20482;-83
2023/09/05 09:44:26;;;;;;;4.10;3.23;;;27.70;70.00;;;;;;4887876;29;20483;-84
2023/09/05 09:46:55;;;;;;;3.57;2.80;;;27.70;70.00;;;;;;4894413;29;20483;-83
2023/09/05 09:49:25;;;;;;;5.07;3.80;;;27.70;70.00;;;;;;4892724;29;20473;-84
2023/09/05 09:51:56;;;;;;;4.03;2.90;;;27.70;70.00;;;;;;4889642;29;20581;-84
2023/09/05 09:54:32;;;;;;;3.27;2.93;;;27.70;70.00;;;;;;4889918;29;20575;-82
2023/09/05 09:57:03;;;;;;;3.17;2.70;;;27.70;70.00;;;;;;4889533;29;21004;-82
2023/09/05 09:59:35;;;;;;;4.90;2.50;;;27.80;69.90;;;;;;4890140;29;20484;-83
2023/09/05 10:02:07;;;;;;;2.63;2.43;;;27.80;69.90;;;;;;4888622;29;20482;-82
2023/09/05 10:04:42;;;;;;;11.23;2.93;;;27.80;69.80;;;;;;4891599;29;20464;-83
2023/09/05 10:07:14;;;;;;;3.43;2.33;;;27.80;69.40;;;;;;4892410;29;20466;-83
2023/09/05 10:09:45;;;;;;;3.20;2.90;;;27.70;66.10;;;;;;4889666;29;20478;-83
2023/09/05 10:12:15;;;;;;;4.90;2.60;;;27.60;67.10;;;;;;4892705;29;20468;-82
2023/09/05 10:14:45;;;;;;;3.13;2.80;;;27.50;66.90;;;;;;4887808;29;20500;-82
2023/09/05 10:17:16;;;;;;;3.00;2.80;;;27.50;66.70;;;;;;4892029;29;20518;-82
2023/09/05 10:19:46;;;;;;;2.60;2.40;;;27.50;65.20;;;;;;4890981;29;20523;-83
2023/09/05 10:22:18;;;;;;;2.80;2.60;;;27.40;67.10;;;;;;4893436;29;20480;-83
2023/09/05 10:24:47;;;;;;;3.20;2.90;;;27.40;68.30;;;;;;4888750;29;20468;-83
2023/09/05 10:27:16;;;;;;;2.60;2.37;;;27.40;68.00;;;;;;4892821;29;20475;-83
2023/09/05 10:29:46;;;;;;;3.80;2.73;;;27.30;68.50;;;;;;4892360;29;20468;-84
2023/09/05 10:32:17;;;;;;;3.20;2.90;;;27.30;68.80;;;;;;4890908;29;20572;-83
2023/09/05 10:35:03;;;;;;;3.73;3.40;;;27.20;68.60;;;;;;4885499;29;20472;-83
2023/09/05 10:37:50;;;;;;;2.63;2.43;;;27.20;68.40;;;;;;4888843;29;21072;-82
2023/09/05 10:40:22;;;;;;;3.23;3.03;;;27.00;68.40;;;;;;4892462;29;20475;-82
2023/09/05 10:42:55;;;;;;;2.83;2.63;;;26.90;68.20;;;;;;4891657;29;20595;-83
2023/09/05 10:45:32;;;;;;;3.07;2.27;;;26.70;68.00;;;;;;4891665;29;20461;-81
2023/09/05 10:48:07;;;;;;;2.73;2.50;;;26.60;67.70;;;;;;4891081;29;20802;-83
2023/09/05 10:51:07;;;;;;;2.47;2.27;;;26.60;67.30;;;;;;4893193;29;20553;-82
2023/09/05 10:53:39;;;;;;;2.57;2.37;;;26.50;67.20;;;;;;4891851;29;20558;-81
2023/09/05 10:56:37;;;;;;;3.50;3.20;;;26.50;67.10;;;;;;4896924;29;20483;-82
2023/09/05 10:59:09;;;;;;;2.47;2.27;;;26.50;67.30;;;;;;4890581;29;21404;-82
2023/09/05 11:01:52;;;;;;;2.67;2.47;;;26.50;66.90;;;;;;4896320;29;20572;-82
2023/09/05 11:04:27;;;;;;;2.60;2.40;;;26.50;66.90;;;;;;4891507;29;20493;-82
2023/09/05 11:07:01;;;;;;;2.90;2.57;;;26.60;66.50;;;;;;4896563;29;20474;-81
2023/09/05 11:09:40;;;;;;;2.43;2.23;;;26.60;66.40;;;;;;4896831;29;20477;-82
2023/09/05 11:12:10;;;;;;;2.30;2.10;;;26.80;66.20;;;;;;4896710;29;20537;-82
2023/09/05 11:14:38;;;;;;;2.03;1.93;;;26.90;65.80;;;;;;4895240;29;20497;-83
2023/09/05 11:17:11;;;;;;;2.77;2.57;;;27.20;65.00;;;;;;4894082;29;20991;-82
2023/09/05 11:19:42;;;;;;;2.87;2.67;;;27.30;64.20;;;;;;4892495;29;20996;-83
2023/09/05 11:22:14;;;;;;;4.70;2.67;;;27.50;63.90;;;;;;4891774;29;21001;-82
2023/09/05 11:24:47;;;;;;;3.77;3.23;;;27.80;63.70;;;;;;4901582;29;20472;-82
2023/09/05 11:27:18;;;;;;;3.87;3.00;;;28.00;64.50;;;;;;4892806;29;20483;-82
2023/09/05 11:29:49;;;;;;;5.93;3.87;;;28.20;64.30;;;;;;4892097;29;20518;-82
2023/09/05 11:32:18;;;;;;;2.90;2.37;;;28.40;64.10;;;;;;4892857;29;20561;-82
2023/09/05 11:34:48;;;;;;;2.40;2.20;;;28.50;63.70;;;;;;4893973;29;20470;-82
2023/09/05 11:37:21;;;;;;;4.10;2.43;;;28.60;64.00;;;;;;4886708;29;20473;-81
2023/09/05 11:39:51;;;;;;;2.67;2.47;;;28.50;63.20;;;;;;4893818;29;20477;-81
2023/09/05 11:42:22;;;;;;;3.33;2.50;;;28.50;63.10;;;;;;4890462;29;20483;-81
2023/09/05 11:44:52;;;;;;;2.20;2.10;;;28.50;62.90;;;;;;4888397;29;20490;-81
2023/09/05 11:47:22;;;;;;;2.20;2.10;;;28.40;62.70;;;;;;4890885;29;20531;-81
2023/09/05 11:49:53;;;;;;;3.40;2.30;;;28.30;62.20;;;;;;4890665;29;20554;-81
2023/09/05 11:52:24;;;;;;;2.57;2.37;;;28.30;62.30;;;;;;4897861;29;20477;-81
2023/09/05 11:54:54;;;;;;;2.00;1.90;;;28.30;62.30;;;;;;4891814;29;20480;-80
2023/09/05 11:57:24;;;;;;;1.90;1.80;;;28.30;62.00;;;;;;4894468;29;20472;-81
2023/09/05 11:59:52;;;;;;;2.10;2.00;;;28.20;61.40;;;;;;4890878;29;20470;-81
2023/09/05 12:02:20;;;;;;;2.40;2.20;;;28.20;61.50;;;;;;4890029;29;20488;-81
2023/09/05 12:04:49;;;;;;;2.40;2.30;;;28.30;61.80;;;;;;4892060;29;20461;-81
2023/09/05 12:07:19;;;;;;;2.43;2.20;;;28.40;61.70;;;;;;4888660;29;20877;-82
2023/09/05 12:09:48;;;;;;;4.70;2.10;;;28.50;61.70;;;;;;4885692;29;20472;-82
2023/09/05 12:12:19;;;;;;;2.40;2.20;;;28.60;61.40;;;;;;4891449;29;20499;-83
2023/09/05 12:14:53;;;;;;;1.93;1.83;;;28.70;61.30;;;;;;4891696;29;20466;-82
2023/09/05 12:17:22;;;;;;;2.30;2.10;;;28.80;61.00;;;;;;4886949;29;20563;-82
2023/09/05 12:19:52;;;;;;;1.90;1.80;;;28.90;60.80;;;;;;4887966;29;20534;-82
2023/09/05 12:22:22;;;;;;;2.53;2.37;;;28.90;60.70;;;;;;4892464;29;20575;-82
2023/09/05 12:25:09;;;;;;;2.30;2.20;;;29.00;60.50;;;;;;4886233;29;20830;-82
2023/09/05 12:27:42;;;;;;;2.47;2.37;;;29.00;60.10;;;;;;4887827;29;20509;-82
2023/09/05 12:30:25;;;;;;;2.40;2.20;;;29.10;60.20;;;;;;4890246;29;20459;-82
2023/09/05 12:32:56;;;;;;;2.20;1.97;;;29.10;60.10;;;;;;4896880;29;21045;-81
2023/09/05 12:35:26;;;;;;;2.00;1.90;;;29.10;60.00;;;;;;4890568;29;20520;-82
2023/09/05 12:37:54;;;;;;;2.13;2.03;;;29.10;59.60;;;;;;4892370;29;20534;-82
2023/09/05 12:40:24;;;;;;;2.20;2.00;;;29.10;60.10;;;;;;4892997;29;20473;-82
2023/09/05 12:42:54;;;;;;;2.30;2.10;;;29.20;60.10;;;;;;4889007;29;20473;-82
2023/09/05 12:45:22;;;;;;;2.27;2.13;;;29.10;60.40;;;;;;4888449;29;20475;-82
2023/09/05 12:47:51;;;;;;;2.40;2.30;;;29.10;60.50;;;;;;4892175;29;21076;-82
2023/09/05 12:50:25;;;;;;;2.20;2.10;;;29.00;60.60;;;;;;4896105;29;20563;-82
2023/09/05 12:52:54;;;;;;;2.80;2.30;;;28.90;60.80;;;;;;4889094;29;20470;-83
2023/09/05 12:55:23;;;;;;;2.00;1.90;;;28.80;61.00;;;;;;4889469;29;20463;-81
2023/09/05 12:57:53;;;;;;;2.60;2.40;;;28.80;61.10;;;;;;4890092;29;20467;-82
2023/09/05 13:00:22;;;;;;;2.77;2.30;;;28.80;61.30;;;;;;4883558;29;20567;-83
2023/09/05 13:02:50;;;;;;;2.30;2.10;;;28.80;61.50;;;;;;4887086;29;20512;-83